Time;durP1;ratioP1;P1;durP2;ratioP2;P2;SDS_P1;SDS_P2;PMS_P1;PMS_P2;Temp;Humidity;BMP_temperature;BMP_pressure;BME280_temperature;BME280_humidity;BME280_pressure;Samples;Min_cycle;Max_cycle;Signal;HPM_P1;HPM_P2
2023/05/01 00:06:26;;;;;;;3.30;1.52;;;11.10;1.00;;;;;;20478176;28;20046;-42
2023/05/01 00:16:27;;;;;;;3.85;1.00;;;11.00;1.00;;;;;;20487544;28;20034;-42
2023/05/01 00:26:30;;;;;;;2.50;1.30;;;10.90;1.00;;;;;;20477934;28;20720;-42
2023/05/01 00:36:31;;;;;;;4.25;1.30;;;10.90;1.00;;;;;;20476785;28;20476;-42
2023/05/01 00:46:33;;;;;;;4.60;1.80;;;10.70;1.00;;;;;;20468848;28;20070;-42
2023/05/01 00:56:34;;;;;;;3.80;2.05;;;10.70;1.00;;;;;;20491429;28;20035;-41
2023/05/01 01:06:53;;;;;;;3.15;1.45;;;10.70;1.00;;;;;;20473692;28;20052;-41
2023/05/01 01:17:02;;;;;;;2.53;1.08;;;10.70;1.00;;;;;;20471700;28;20050;-41
2023/05/01 01:27:32;;;;;;;2.22;0.98;;;10.60;1.00;;;;;;20468059;28;20039;-41
2023/05/01 01:38:07;;;;;;;4.00;1.08;;;10.60;1.00;;;;;;20436081;28;20132;-41
2023/05/01 01:48:15;;;;;;;3.13;1.38;;;10.40;1.00;;;;;;20541336;28;20089;-42
2023/05/01 01:58:20;;;;;;;3.13;1.43;;;10.20;1.00;;;;;;20546118;28;20042;-42
2023/05/01 02:08:23;;;;;;;2.08;0.85;;;10.10;1.00;;;;;;20547249;28;20037;-42
2023/05/01 02:18:27;;;;;;;3.67;1.05;;;10.00;1.00;;;;;;20537102;28;20043;-42
2023/05/01 02:28:29;;;;;;;3.95;1.48;;;10.00;1.00;;;;;;20539828;28;20166;-42
2023/05/01 02:38:30;;;;;;;5.75;1.55;;;10.00;1.00;;;;;;20539302;28;20050;-42
2023/05/01 02:48:32;;;;;;;5.30;1.42;;;10.00;1.00;;;;;;20544137;28;20297;-42
2023/05/01 02:58:34;;;;;;;4.72;1.92;;;9.90;1.00;;;;;;20540283;28;20041;-42
2023/05/01 03:08:35;;;;;;;2.50;1.05;;;9.90;1.00;;;;;;20540184;28;20034;-42
2023/05/01 03:18:36;;;;;;;4.15;1.20;;;10.00;1.00;;;;;;20546857;28;20042;-42
2023/05/01 03:28:37;;;;;;;2.90;1.38;;;10.00;1.00;;;;;;20570883;28;20122;-42
2023/05/01 03:38:38;;;;;;;2.67;1.40;;;9.90;1.00;;;;;;20544280;28;20046;-42
2023/05/01 03:48:39;;;;;;;3.83;1.50;;;9.90;1.00;;;;;;20538649;28;20038;-41
2023/05/01 03:58:40;;;;;;;4.80;1.80;;;9.80;1.00;;;;;;20541843;28;20043;-42
2023/05/01 04:08:43;;;;;;;4.97;2.20;;;9.80;1.00;;;;;;20542717;28;20038;-42
2023/05/01 04:18:44;;;;;;;4.15;1.70;;;9.70;1.00;;;;;;20553021;28;20073;-42
2023/05/01 04:28:45;;;;;;;5.07;2.08;;;9.70;1.00;;;;;;20552303;28;20056;-42
2023/05/01 04:38:47;;;;;;;5.72;1.80;;;9.80;1.00;;;;;;20548040;28;20222;-42
2023/05/01 04:48:48;;;;;;;5.63;1.60;;;9.80;1.00;;;;;;20547077;28;20394;-41
2023/05/01 04:58:49;;;;;;;5.75;2.05;;;9.90;1.00;;;;;;20481500;28;20400;-42
2023/05/01 05:08:50;;;;;;;4.20;1.40;;;9.90;1.00;;;;;;20471741;28;20043;-42
2023/05/01 05:18:55;;;;;;;3.40;1.85;;;10.00;1.00;;;;;;20469405;28;20047;-42
2023/05/01 05:28:55;;;;;;;5.50;1.95;;;10.00;1.00;;;;;;20478016;28;20553;-42
2023/05/01 05:38:58;;;;;;;3.60;1.85;;;10.10;1.00;;;;;;20507564;28;20054;-42
2023/05/01 05:48:59;;;;;;;3.55;1.90;;;10.20;1.00;;;;;;20463296;28;20053;-42
2023/05/01 05:59:03;;;;;;;3.58;1.58;;;10.30;1.00;;;;;;20498735;28;20134;-42
2023/05/01 06:09:04;;;;;;;3.40;1.70;;;10.40;1.00;;;;;;20481398;28;20805;-42
2023/05/01 06:19:06;;;;;;;6.07;1.80;;;10.40;1.00;;;;;;20500174;28;20078;-43
2023/05/01 06:29:07;;;;;;;6.03;1.85;;;10.40;1.00;;;;;;20483652;28;20035;-43
2023/05/01 06:39:08;;;;;;;3.75;1.95;;;10.40;1.00;;;;;;20492635;28;20051;-43
2023/05/01 06:49:09;;;;;;;3.03;1.60;;;10.60;1.00;;;;;;20489877;28;20521;-43
2023/05/01 06:59:10;;;;;;;3.92;1.63;;;10.70;1.00;;;;;;20482799;28;20446;-42
2023/05/01 07:09:12;;;;;;;6.32;2.15;;;10.90;1.00;;;;;;20537096;28;20092;-43
2023/05/01 07:19:13;;;;;;;3.63;1.77;;;11.00;1.00;;;;;;20547185;28;20081;-43
2023/05/01 07:29:15;;;;;;;4.72;1.98;;;11.20;1.00;;;;;;20540363;28;20042;-42
2023/05/01 07:39:16;;;;;;;4.25;2.22;;;11.40;1.00;;;;;;20544140;28;20035;-43
2023/05/01 07:49:17;;;;;;;5.88;1.98;;;11.80;1.00;;;;;;20545633;28;20442;-43
2023/05/01 07:59:18;;;;;;;5.53;2.03;;;12.00;1.00;;;;;;20546746;28;20084;-43
2023/05/01 08:09:20;;;;;;;8.00;4.13;;;12.20;1.00;;;;;;20531838;28;20709;-43
2023/05/01 08:19:22;;;;;;;7.00;2.55;;;12.50;1.00;;;;;;20531600;28;20039;-43
2023/05/01 08:29:23;;;;;;;5.80;2.75;;;12.60;1.00;;;;;;20536802;28;20130;-43
2023/05/01 08:39:24;;;;;;;6.43;2.67;;;12.90;1.00;;;;;;20540570;28;20414;-43
2023/05/01 08:49:27;;;;;;;6.05;2.78;;;13.20;1.00;;;;;;20559188;28;20053;-43
2023/05/01 08:59:30;;;;;;;5.00;2.22;;;13.90;1.00;;;;;;20561858;28;20097;-43
2023/05/01 09:09:32;;;;;;;5.80;2.15;;;13.90;1.00;;;;;;20559274;28;20097;-43
2023/05/01 09:19:33;;;;;;;6.75;2.03;;;14.00;1.00;;;;;;20544818;28;20510;-43
2023/05/01 09:29:38;;;;;;;9.38;2.65;;;14.40;1.00;;;;;;20550951;28;20035;-43
2023/05/01 09:39:40;;;;;;;3.50;1.90;;;15.00;1.00;;;;;;20552078;28;20434;-43
2023/05/01 09:49:46;;;;;;;3.85;2.20;;;15.20;1.00;;;;;;20560244;28;20042;-43
2023/05/01 10:00:01;;;;;;;5.50;2.47;;;15.60;1.00;;;;;;20566673;28;20462;-43
2023/05/01 10:10:18;;;;;;;7.72;2.30;;;15.80;1.00;;;;;;20564688;28;20112;-43
2023/05/01 10:20:19;;;;;;;5.07;2.67;;;15.70;1.00;;;;;;20550386;28;20407;-43
2023/05/01 10:30:21;;;;;;;7.35;2.03;;;15.70;1.00;;;;;;20565124;28;20046;-43
2023/05/01 10:40:37;;;;;;;5.60;2.20;;;15.70;1.00;;;;;;20566850;28;20576;-43
2023/05/01 10:51:16;;;;;;;7.20;2.90;;;15.70;1.00;;;;;;20556257;28;20908;-43
2023/05/01 11:01:38;;;;;;;8.07;2.80;;;15.60;1.00;;;;;;20546351;28;20079;-43
2023/05/01 11:11:42;;;;;;;4.85;2.03;;;15.40;1.00;;;;;;20546979;28;23371;-43
2023/05/01 11:21:43;;;;;;;8.13;2.88;;;15.10;1.00;;;;;;20557143;28;20050;-43
2023/05/01 11:31:47;;;;;;;5.15;3.00;;;14.80;1.00;;;;;;20572050;28;20083;-43
2023/05/01 11:41:48;;;;;;;4.18;1.90;;;14.40;1.00;;;;;;20570332;28;20047;-43
2023/05/01 11:51:56;;;;;;;4.55;1.95;;;14.30;1.00;;;;;;20565111;28;20042;-43
2023/05/01 12:01:57;;;;;;;;;;;14.10;1.00;;;;;;20571842;28;20204;-42
2023/05/01 12:12:00;;;;;;;3.65;1.67;;;13.80;1.00;;;;;;20562124;28;20038;-43
2023/05/01 12:22:06;;;;;;;4.45;2.25;;;13.60;1.00;;;;;;20569997;28;20042;-42
2023/05/01 12:32:08;;;;;;;5.82;2.35;;;13.40;1.00;;;;;;20579067;28;20038;-42
2023/05/01 12:42:13;;;;;;;5.35;2.08;;;13.40;1.00;;;;;;20577073;28;20051;-42
2023/05/01 12:52:15;;;;;;;4.72;2.17;;;13.40;1.00;;;;;;20603474;28;20350;-43
2023/05/01 13:02:17;;;;;;;8.00;3.00;;;13.50;1.00;;;;;;20577418;28;20041;-42
2023/05/01 13:12:18;;;;;;;6.15;2.22;;;13.80;1.00;;;;;;20561866;28;20111;-43
2023/05/01 13:22:37;;;;;;;5.03;2.88;;;14.30;1.00;;;;;;20561587;28;20034;-43
2023/05/01 13:32:41;;;;;;;4.30;2.05;;;14.90;1.00;;;;;;20563441;28;20038;-40
2023/05/01 13:42:42;;;;;;;5.25;3.00;;;17.30;1.00;;;;;;20558011;28;20599;-41
2023/05/01 13:52:44;;;;;;;4.60;1.98;;;18.90;1.00;;;;;;20557003;28;20030;-41
2023/05/01 14:02:47;;;;;;;3.95;1.90;;;19.60;1.00;;;;;;20556113;28;20406;-41
2023/05/01 14:12:48;;;;;;;2.95;1.63;;;18.90;1.00;;;;;;20565969;28;20041;-41
2023/05/01 14:22:52;;;;;;;5.18;2.28;;;18.70;1.00;;;;;;20490784;28;20549;-41
2023/05/01 14:32:54;;;;;;;6.65;2.50;;;18.30;1.00;;;;;;20476942;28;20042;-41
2023/05/01 14:42:56;;;;;;;6.72;3.60;;;17.40;1.00;;;;;;20481890;28;20055;-41
2023/05/01 14:52:59;;;;;;;6.05;3.03;;;17.60;1.00;;;;;;20486673;28;20046;-41
2023/05/01 15:03:00;;;;;;;4.55;1.48;;;18.00;1.00;;;;;;20469687;28;20038;-41
2023/05/01 15:13:01;;;;;;;3.17;1.85;;;18.20;1.00;;;;;;20475708;28;20055;-40
2023/05/01 15:23:02;;;;;;;5.63;3.08;;;17.90;1.00;;;;;;20462582;28;20518;-41
2023/05/01 15:33:04;;;;;;;4.40;2.33;;;18.20;1.00;;;;;;20464401;28;20494;-41
2023/05/01 15:43:05;;;;;;;3.70;2.33;;;18.10;1.00;;;;;;20465464;28;20476;-41
2023/05/01 15:53:06;;;;;;;7.32;3.83;;;18.10;1.00;;;;;;20486380;28;20043;-40
2023/05/01 16:03:07;;;;;;;6.22;3.15;;;17.70;1.00;;;;;;20500614;28;20051;-41
2023/05/01 16:13:08;;;;;;;5.88;3.00;;;17.40;1.00;;;;;;20494904;28;20926;-41
2023/05/01 16:23:10;;;;;;;6.55;3.85;;;17.10;1.00;;;;;;20469710;28;20042;-41
2023/05/01 16:33:19;;;;;;;6.32;3.70;;;16.70;1.00;;;;;;20503975;28;20038;-41
2023/05/01 16:43:21;;;;;;;8.20;3.50;;;16.60;1.00;;;;;;20506153;28;20058;-41
2023/05/01 16:53:22;;;;;;;7.15;3.78;;;16.40;1.00;;;;;;20497755;28;20046;-41
2023/05/01 17:03:23;;;;;;;9.70;4.22;;;16.00;1.00;;;;;;20488125;28;20045;-41
2023/05/01 17:13:24;;;;;;;9.90;5.32;;;15.80;1.00;;;;;;20486073;28;20563;-41
2023/05/01 17:23:28;;;;;;;10.27;4.88;;;15.60;1.00;;;;;;20497351;28;20038;-41
2023/05/01 17:33:29;;;;;;;9.77;5.93;;;15.40;1.00;;;;;;20509261;28;20039;-41
2023/05/01 17:43:30;;;;;;;12.27;6.68;;;15.30;1.00;;;;;;20486594;28;20047;-41
2023/05/01 17:53:32;;;;;;;13.93;7.15;;;15.10;1.00;;;;;;20476263;28;20043;-41
2023/05/01 18:03:33;;;;;;;15.73;6.75;;;14.90;1.00;;;;;;20487485;28;20042;-41
2023/05/01 18:13:37;;;;;;;15.30;7.47;;;14.60;1.00;;;;;;20479932;28;20046;-41
2023/05/01 18:23:38;;;;;;;17.13;8.93;;;14.40;1.00;;;;;;20495421;28;20039;-41
2023/05/01 18:33:39;;;;;;;18.15;8.70;;;14.30;1.00;;;;;;20477018;28;20053;-41
2023/05/01 18:43:40;;;;;;;19.77;9.82;;;13.80;1.00;;;;;;20500529;28;20105;-43
2023/05/01 18:53:41;;;;;;;19.63;10.73;;;13.70;1.00;;;;;;20500156;28;20455;-42
2023/05/01 19:03:42;;;;;;;28.27;11.60;;;13.40;1.00;;;;;;20482269;28;20081;-43
2023/05/01 19:13:43;;;;;;;18.67;8.75;;;13.10;1.00;;;;;;20485074;28;20035;-43
2023/05/01 19:23:46;;;;;;;15.45;7.82;;;12.80;1.00;;;;;;20471012;28;20041;-42
2023/05/01 19:33:47;;;;;;;16.75;7.90;;;12.60;1.00;;;;;;20470323;28;20069;-42
2023/05/01 19:43:48;;;;;;;19.67;8.80;;;12.40;1.00;;;;;;20479838;28;20046;-42
2023/05/01 19:53:49;;;;;;;21.83;10.00;;;12.40;1.00;;;;;;20478294;28;20227;-42
2023/05/01 20:03:50;;;;;;;20.83;8.95;;;12.40;1.00;;;;;;20488021;28;20467;-42
2023/05/01 20:13:51;;;;;;;23.40;9.40;;;12.50;1.00;;;;;;20461711;28;20055;-42
2023/05/01 20:23:53;;;;;;;18.98;8.93;;;12.50;1.00;;;;;;20471551;28;20544;-42
2023/05/01 20:33:54;;;;;;;22.70;9.85;;;12.40;1.00;;;;;;20464613;28;20039;-42
2023/05/01 20:43:55;;;;;;;21.13;9.48;;;12.20;1.00;;;;;;20477740;28;21299;-42
2023/05/01 20:53:56;;;;;;;17.40;8.52;;;12.10;1.00;;;;;;20475249;28;20050;-42
2023/05/01 21:03:58;;;;;;;20.10;8.93;;;12.10;1.00;;;;;;20498408;28;20065;-42
2023/05/01 21:14:00;;;;;;;19.17;8.35;;;12.10;1.00;;;;;;20470180;28;20418;-42
2023/05/01 21:24:01;;;;;;;24.27;9.38;;;12.10;1.00;;;;;;20467180;28;20050;-42
2023/05/01 21:34:02;;;;;;;19.02;8.52;;;12.00;1.00;;;;;;20518717;28;20038;-42
2023/05/01 21:44:03;;;;;;;22.38;9.85;;;12.00;1.00;;;;;;20542078;28;20593;-42
2023/05/01 21:54:04;;;;;;;26.40;9.05;;;11.90;1.00;;;;;;20541001;28;20034;-42
2023/05/01 22:04:06;;;;;;;19.02;8.05;;;11.80;1.00;;;;;;20541429;28;20038;-42
2023/05/01 22:14:07;;;;;;;20.92;7.28;;;11.80;1.00;;;;;;20532117;28;20038;-42
2023/05/01 22:24:08;;;;;;;16.13;6.90;;;11.70;1.00;;;;;;20534276;28;20149;-42
2023/05/01 22:34:09;;;;;;;18.27;6.97;;;11.60;1.00;;;;;;20541146;28;20478;-42
2023/05/01 22:44:10;;;;;;;16.45;6.30;;;11.30;1.00;;;;;;20540994;28;20088;-43
2023/05/01 22:54:11;;;;;;;18.85;6.97;;;11.20;2.50;;;;;;20542737;28;20035;-42
2023/05/01 23:04:14;;;;;;;14.27;5.88;;;11.10;6.00;;;;;;20535555;28;20074;-42
2023/05/01 23:14:16;;;;;;;16.38;5.85;;;11.20;9.60;;;;;;20530540;28;20041;-42
2023/05/01 23:24:19;;;;;;;12.70;5.32;;;11.10;11.60;;;;;;20530126;28;20038;-42
2023/05/01 23:34:21;;;;;;;11.30;5.47;;;11.00;12.80;;;;;;20532349;28;20259;-42
2023/05/01 23:44:22;;;;;;;8.80;4.55;;;11.00;17.30;;;;;;20530633;28;20050;-42
2023/05/01 23:54:23;;;;;;;13.23;6.10;;;11.00;18.90;;;;;;20524093;28;20446;-42
